createdAt,value
2023-05-15T00:00:52.593Z,96.01
2023-05-15T00:01:52.587Z,95.91
2023-05-15T00:02:52.718Z,95.70
2023-05-15T00:03:52.614Z,95.61
2023-05-15T00:04:52.586Z,95.61
2023-05-15T00:05:52.544Z,95.81
2023-05-15T00:06:52.545Z,96.01
2023-05-15T00:07:52.513Z,96.22
2023-05-15T00:08:52.489Z,96.42
2023-05-15T00:09:52.483Z,96.73
2023-05-15T00:11:00.927Z,96.73
2023-05-15T00:11:52.465Z,96.63
2023-05-15T00:12:52.426Z,96.53
2023-05-15T00:13:52.417Z,96.53
2023-05-15T00:14:52.411Z,96.42
2023-05-15T00:15:52.447Z,96.42
2023-05-15T00:16:52.386Z,96.42
2023-05-15T00:17:52.405Z,96.32
2023-05-15T00:18:52.401Z,96.22
2023-05-15T00:19:52.344Z,96.53
2023-05-15T00:20:52.351Z,96.83
2023-05-15T00:21:52.308Z,96.94
2023-05-15T00:22:52.324Z,96.94
2023-05-15T00:23:52.268Z,96.83
2023-05-15T00:24:52.277Z,96.63
2023-05-15T00:25:52.276Z,96.73
2023-05-15T00:26:52.229Z,96.32
2023-05-15T00:27:52.219Z,96.22
2023-05-15T00:28:52.241Z,96.22
2023-05-15T00:29:52.224Z,96.42
2023-05-15T00:30:52.188Z,96.53
2023-05-15T00:31:52.293Z,96.83
2023-05-15T00:32:52.211Z,96.83
2023-05-15T00:33:52.139Z,96.83
2023-05-15T00:34:52.142Z,96.94
2023-05-15T00:35:52.122Z,97.04
2023-05-15T00:36:52.122Z,97.04
2023-05-15T00:37:52.101Z,97.04
2023-05-15T00:38:52.118Z,97.14
2023-05-15T00:39:52.090Z,97.24
2023-05-15T00:40:52.055Z,97.04
2023-05-15T00:41:52.046Z,97.04
2023-05-15T00:42:52.051Z,97.04
2023-05-15T00:43:52.130Z,96.94
2023-05-15T00:44:52.016Z,97.04
2023-05-15T00:45:52.013Z,97.04
2023-05-15T00:46:52.055Z,97.24
2023-05-15T00:47:52.012Z,97.24
2023-05-15T00:48:51.971Z,97.14
2023-05-15T00:49:51.990Z,96.83
2023-05-15T00:50:51.933Z,96.94
2023-05-15T00:51:51.910Z,97.04
2023-05-15T00:52:51.895Z,96.83
2023-05-15T00:53:52.009Z,96.73
2023-05-15T00:54:51.879Z,96.63
2023-05-15T00:55:51.863Z,96.73
2023-05-15T00:56:51.845Z,97.04
2023-05-15T00:57:51.850Z,97.14
2023-05-15T00:58:51.821Z,96.94
2023-05-15T00:59:51.806Z,96.63
2023-05-15T01:00:51.828Z,96.32
2023-05-15T01:01:51.773Z,96.22
2023-05-15T01:02:51.928Z,96.42
2023-05-15T01:03:51.746Z,96.42
2023-05-15T01:04:51.740Z,96.73
2023-05-15T01:05:51.730Z,96.73
2023-05-15T01:06:51.724Z,96.83
2023-05-15T01:07:51.715Z,96.83
2023-05-15T01:08:51.686Z,96.83
2023-05-15T01:09:51.685Z,96.83
2023-05-15T01:10:51.701Z,96.94
2023-05-15T01:11:51.669Z,97.04
2023-05-15T01:12:51.638Z,97.14
2023-05-15T01:13:51.604Z,97.24
2023-05-15T01:14:51.630Z,97.04
2023-05-15T01:15:51.608Z,97.04
2023-05-15T01:16:51.615Z,96.94
2023-05-15T01:17:51.637Z,97.14
2023-05-15T01:18:51.603Z,97.24
2023-05-15T01:19:51.664Z,97.34
2023-05-15T01:20:51.530Z,97.34
2023-05-15T01:21:51.509Z,97.34
2023-05-15T01:22:51.504Z,97.14
2023-05-15T01:23:51.476Z,97.14
2023-05-15T01:24:51.495Z,97.14
2023-05-15T01:25:51.494Z,97.04
2023-05-15T01:26:51.448Z,96.83
2023-05-15T01:27:51.456Z,96.63
2023-05-15T01:28:51.411Z,96.83
2023-05-15T01:29:51.442Z,96.73
2023-05-15T01:30:51.402Z,96.73
2023-05-15T01:31:51.415Z,96.94
2023-05-15T01:32:51.408Z,97.04
2023-05-15T01:33:51.349Z,96.73
2023-05-15T01:34:51.346Z,96.83
2023-05-15T01:35:51.355Z,96.94
2023-05-15T01:36:51.304Z,97.04
2023-05-15T01:37:51.312Z,96.83
2023-05-15T01:38:51.293Z,96.73
2023-05-15T01:39:51.273Z,96.73
2023-05-15T01:40:51.285Z,96.94
2023-05-15T01:41:51.260Z,97.04
2023-05-15T01:42:51.248Z,97.24
2023-05-15T01:43:51.221Z,97.14
2023-05-15T01:44:51.201Z,97.04
2023-05-15T01:45:51.219Z,97.14
2023-05-15T01:46:51.277Z,97.04
2023-05-15T01:47:51.190Z,97.14
2023-05-15T01:48:51.172Z,97.24
2023-05-15T01:49:51.145Z,97.34
2023-05-15T01:50:51.140Z,97.45
2023-05-15T01:51:51.128Z,97.55
2023-05-15T01:52:51.108Z,97.55
2023-05-15T01:53:51.120Z,97.55
2023-05-15T01:54:51.080Z,97.65
2023-05-15T01:55:51.052Z,97.55
2023-05-15T01:56:51.058Z,97.65
2023-05-15T01:57:51.043Z,97.65
2023-05-15T01:58:51.008Z,97.75
2023-05-15T01:59:50.992Z,97.96
2023-05-15T02:00:51.025Z,97.96
2023-05-15T02:01:50.995Z,97.86
2023-05-15T02:02:51.138Z,97.65
2023-05-15T02:03:51.004Z,97.55
2023-05-15T02:04:50.940Z,97.55
2023-05-15T02:05:50.928Z,97.45
2023-05-15T02:06:50.902Z,97.55
2023-05-15T02:07:50.927Z,97.55
2023-05-15T02:08:50.889Z,97.65
2023-05-15T02:09:50.869Z,97.45
2023-05-15T02:10:50.861Z,97.45
2023-05-15T02:11:50.886Z,97.45
2023-05-15T02:12:50.871Z,97.34
2023-05-15T02:13:50.824Z,97.24
2023-05-15T02:14:50.805Z,97.30
2023-05-15T02:15:50.822Z,97.34
2023-05-15T02:16:50.785Z,97.34
2023-05-15T02:17:50.857Z,97.24
2023-05-15T02:18:50.788Z,96.99
2023-05-15T02:19:50.735Z,97.09
2023-05-15T02:20:50.721Z,97.04
2023-05-15T02:21:50.740Z,97.04
2023-05-15T02:22:50.724Z,97.04
2023-05-15T02:23:50.672Z,96.94
2023-05-15T02:24:50.674Z,96.94
2023-05-15T02:25:50.668Z,96.83
2023-05-15T02:26:50.661Z,96.94
2023-05-15T02:27:50.616Z,96.94
2023-05-15T02:28:50.669Z,96.94
2023-05-15T02:29:50.593Z,96.94
2023-05-15T02:30:50.606Z,96.83
2023-05-15T02:31:50.587Z,96.83
2023-05-15T02:32:50.584Z,96.94
2023-05-15T02:33:50.599Z,96.73
2023-05-15T02:34:50.540Z,96.53
2023-05-15T02:35:50.653Z,96.63
2023-05-15T02:36:50.540Z,96.83
2023-05-15T02:37:50.505Z,96.94
2023-05-15T02:38:50.481Z,96.94
2023-05-15T02:39:50.464Z,96.94
2023-05-15T02:40:50.443Z,96.94
2023-05-15T02:41:50.474Z,96.94
2023-05-15T02:42:50.416Z,96.94
2023-05-15T02:43:50.449Z,96.83
2023-05-15T02:44:50.422Z,96.73
2023-05-15T02:45:50.416Z,96.73
2023-05-15T02:46:50.396Z,96.73
2023-05-15T02:47:50.540Z,96.73
2023-05-15T02:48:50.390Z,96.94
2023-05-15T02:49:50.329Z,97.04
2023-05-15T02:50:50.313Z,97.14
2023-05-15T02:51:50.314Z,96.94
2023-05-15T02:52:50.292Z,96.83
2023-05-15T02:53:50.267Z,96.63
2023-05-15T02:54:50.285Z,96.53
2023-05-15T02:55:50.246Z,96.53
2023-05-15T02:56:50.237Z,96.53
2023-05-15T02:57:50.245Z,96.53
2023-05-15T02:58:50.311Z,96.63
2023-05-15T02:59:50.211Z,96.73
2023-05-15T03:00:50.215Z,96.83
2023-05-15T03:01:50.169Z,96.83
2023-05-15T03:02:50.187Z,96.94
2023-05-15T03:03:50.172Z,97.04
2023-05-15T03:04:50.151Z,96.94
2023-05-15T03:05:50.107Z,97.04
2023-05-15T03:06:50.108Z,97.08
2023-05-15T03:07:50.088Z,97.19
2023-05-15T03:08:50.073Z,97.29
2023-05-15T03:09:50.084Z,97.29
2023-05-15T03:10:50.064Z,97.19
2023-05-15T03:11:50.042Z,96.98
2023-05-15T03:12:50.022Z,96.98
2023-05-15T03:13:49.998Z,97.14
2023-05-15T03:14:50.018Z,97.34
2023-05-15T03:15:49.999Z,97.24
2023-05-15T03:16:50.019Z,97.04
2023-05-15T03:17:49.986Z,97.04
2023-05-15T03:18:50.033Z,97.04
2023-05-15T03:19:49.920Z,97.04
2023-05-15T03:20:49.904Z,97.29
2023-05-15T03:21:49.888Z,97.49
2023-05-15T03:22:49.908Z,97.91
2023-05-15T03:23:49.874Z,98.11
2023-05-15T03:24:49.863Z,98.21
2023-05-15T03:25:49.842Z,98.52
2023-05-15T03:26:49.828Z,98.77
2023-05-15T03:27:49.847Z,98.87
2023-05-15T03:28:49.794Z,98.97
2023-05-15T03:29:49.783Z,99.08
2023-05-15T03:30:49.797Z,99.03
2023-05-15T03:31:49.892Z,99.03
2023-05-15T03:32:49.776Z,99.03
2023-05-15T03:33:49.741Z,98.93
2023-05-15T03:34:49.751Z,98.83
2023-05-15T03:35:49.722Z,98.72
2023-05-15T03:36:49.728Z,98.52
2023-05-15T03:37:49.683Z,98.93
2023-05-15T03:38:49.700Z,98.93
2023-05-15T03:39:49.658Z,99.03
2023-05-15T03:40:51.112Z,99.03
2023-05-15T03:41:49.631Z,99.03
2023-05-15T03:42:49.615Z,99.03
2023-05-15T03:43:49.604Z,99.03
2023-05-15T03:44:49.800Z,99.13
2023-05-15T03:45:49.626Z,98.83
2023-05-15T03:46:49.628Z,98.72
2023-05-15T03:47:49.598Z,98.52
2023-05-15T03:48:49.530Z,98.42
2023-05-15T03:49:49.513Z,98.42
2023-05-15T03:50:49.528Z,98.32
2023-05-15T03:51:49.504Z,98.32
2023-05-15T03:52:49.515Z,98.21
2023-05-15T03:53:49.456Z,98.11
2023-05-15T03:54:49.531Z,98.00
2023-05-15T03:55:49.471Z,97.91
2023-05-15T03:56:49.416Z,97.91
2023-05-15T03:57:49.432Z,98.00
2023-05-15T03:58:49.409Z,98.11
2023-05-15T03:59:49.380Z,98.21
2023-05-15T04:00:49.414Z,98.32
2023-05-15T04:02:03.417Z,98.27
2023-05-15T04:02:49.424Z,98.21
2023-05-15T04:03:49.320Z,97.80
2023-05-15T04:04:49.402Z,97.70
2023-05-15T04:05:49.308Z,97.60
2023-05-15T04:06:49.288Z,97.39
2023-05-15T04:07:49.316Z,97.64
2023-05-15T04:08:49.254Z,97.85
2023-05-15T04:09:49.254Z,98.05
2023-05-15T04:10:49.250Z,98.25
2023-05-15T04:11:49.245Z,98.42
2023-05-15T04:12:49.219Z,98.62
2023-05-15T04:13:49.188Z,98.83
2023-05-15T04:14:49.179Z,98.72
2023-05-15T04:15:49.210Z,98.62
2023-05-15T04:16:49.276Z,98.46
2023-05-15T04:17:49.161Z,98.25
2023-05-15T04:18:49.163Z,98.25
2023-05-15T04:19:49.105Z,98.16
2023-05-15T04:20:49.094Z,98.36
2023-05-15T04:21:49.112Z,98.36
2023-05-15T04:22:49.090Z,98.67
2023-05-15T04:23:49.061Z,98.97
2023-05-15T04:24:49.057Z,99.08
2023-05-15T04:25:49.045Z,99.08
2023-05-15T04:26:49.082Z,99.08
2023-05-15T04:27:49.058Z,99.08
2023-05-15T04:29:00.112Z,98.97
2023-05-15T04:29:48.990Z,98.87
2023-05-15T04:30:48.961Z,98.77
2023-05-15T04:31:48.987Z,98.57
2023-05-15T04:32:48.992Z,98.57
2023-05-15T04:33:49.366Z,98.67
2023-05-15T04:34:48.929Z,98.77
2023-05-15T04:35:48.895Z,98.77
2023-05-15T04:36:48.909Z,98.67
2023-05-15T04:37:48.880Z,98.77
2023-05-15T04:38:48.880Z,98.87
2023-05-15T04:39:48.836Z,99.03
2023-05-15T04:40:48.843Z,98.93
2023-05-15T04:41:48.873Z,98.83
2023-05-15T04:42:48.837Z,98.72
2023-05-15T04:43:48.805Z,98.42
2023-05-15T04:44:48.780Z,98.21
2023-05-15T04:45:48.786Z,98.32
2023-05-15T04:46:48.762Z,98.52
2023-05-15T04:47:48.791Z,98.52
2023-05-15T04:48:48.769Z,98.42
2023-05-15T04:49:48.704Z,98.21
2023-05-15T04:50:48.739Z,97.91
2023-05-15T04:51:48.825Z,98.00
2023-05-15T04:52:48.680Z,98.11
2023-05-15T04:53:48.659Z,98.16
2023-05-15T04:54:48.662Z,98.11
2023-05-15T04:55:48.621Z,98.32
2023-05-15T04:56:48.626Z,98.42
2023-05-15T04:57:48.623Z,98.52
2023-05-15T04:58:48.586Z,98.62
2023-05-15T04:59:48.620Z,98.52
2023-05-15T05:00:48.573Z,98.32
2023-05-15T05:01:48.584Z,98.11
2023-05-15T05:02:48.636Z,98.11
2023-05-15T05:03:48.610Z,98.11
2023-05-15T05:04:48.505Z,98.21
2023-05-15T05:05:48.489Z,98.21
2023-05-15T05:06:48.523Z,98.05
2023-05-15T05:07:48.479Z,98.16
2023-05-15T05:08:48.476Z,98.16
2023-05-15T05:09:48.447Z,98.25
2023-05-15T05:10:48.419Z,98.46
2023-05-15T05:11:48.433Z,98.57
2023-05-15T05:12:48.404Z,98.67
2023-05-15T05:13:48.408Z,98.77
2023-05-15T05:14:48.381Z,98.67
2023-05-15T05:15:48.372Z,98.77
2023-05-15T05:16:48.348Z,98.77
2023-05-15T05:17:48.380Z,98.77
2023-05-15T05:18:48.411Z,98.77
2023-05-15T05:19:48.374Z,98.77
2023-05-15T05:20:48.322Z,98.57
2023-05-15T05:21:48.284Z,98.46
2023-05-15T05:22:48.268Z,98.57
2023-05-15T05:23:48.285Z,98.77
2023-05-15T05:24:48.283Z,98.97
2023-05-15T05:25:48.224Z,98.87
2023-05-15T05:26:48.214Z,98.87
2023-05-15T05:27:48.200Z,99.08
2023-05-15T05:28:48.206Z,99.18
2023-05-15T05:29:48.207Z,99.28
2023-05-15T05:30:48.267Z,99.38
2023-05-15T05:31:48.192Z,99.49
2023-05-15T05:32:48.178Z,99.49
2023-05-15T05:33:48.130Z,99.49
2023-05-15T05:34:48.194Z,99.49
2023-05-15T05:35:48.114Z,99.49
2023-05-15T05:36:48.096Z,99.49
2023-05-15T05:37:48.070Z,99.54
2023-05-15T05:38:48.048Z,99.65
2023-05-15T05:39:48.041Z,99.75
2023-05-15T05:40:48.101Z,99.85
2023-05-15T05:41:48.025Z,99.75
2023-05-15T05:42:47.997Z,99.54
2023-05-15T05:43:47.983Z,99.44
2023-05-15T05:44:47.990Z,99.44
2023-05-15T05:45:47.976Z,99.24
2023-05-15T05:46:48.022Z,99.13
2023-05-15T05:47:47.967Z,99.03
2023-05-15T05:48:47.942Z,99.13
2023-05-15T05:49:47.909Z,99.13
2023-05-15T05:50:47.904Z,99.13
2023-05-15T05:51:47.863Z,99.34
2023-05-15T05:52:47.868Z,99.40
2023-05-15T05:53:47.870Z,99.40
2023-05-15T05:54:47.913Z,99.40
2023-05-15T05:55:47.885Z,99.29
2023-05-15T05:56:47.808Z,99.29
2023-05-15T05:57:47.814Z,99.19
2023-05-15T05:58:47.911Z,99.09
2023-05-15T05:59:47.797Z,98.99
2023-05-15T06:00:47.765Z,99.09
2023-05-15T06:01:47.746Z,99.40
2023-05-15T06:02:47.907Z,98.99
2023-05-15T06:03:47.764Z,98.37
2023-05-15T06:04:47.693Z,98.16
2023-05-15T06:05:47.691Z,97.96
2023-05-15T06:06:47.706Z,97.86
2023-05-15T06:07:47.665Z,97.86
2023-05-15T06:08:47.688Z,97.86
2023-05-15T06:09:47.621Z,97.96
2023-05-15T06:10:47.633Z,98.07
2023-05-15T06:11:47.652Z,98.07
2023-05-15T06:12:47.601Z,97.96
2023-05-15T06:13:47.585Z,97.96
2023-05-15T06:14:47.559Z,97.96
2023-05-15T06:15:47.665Z,98.07
2023-05-15T06:16:47.565Z,98.27
2023-05-15T06:17:47.596Z,98.37
2023-05-15T06:18:47.560Z,98.68
2023-05-15T06:19:47.501Z,98.78
2023-05-15T06:20:47.494Z,98.78
2023-05-15T06:21:47.512Z,98.78
2023-05-15T06:22:47.470Z,98.78
2023-05-15T06:23:47.438Z,98.78
2023-05-15T06:24:47.438Z,98.88
2023-05-15T06:25:47.455Z,98.88
2023-05-15T06:26:47.426Z,98.99
2023-05-15T06:27:47.422Z,99.19
2023-05-15T06:28:47.386Z,99.19
2023-05-15T06:29:47.382Z,99.19
2023-05-15T06:30:47.393Z,99.19
2023-05-15T06:31:47.370Z,99.15
2023-05-15T06:32:47.400Z,99.04
2023-05-15T06:33:47.332Z,99.35
2023-05-15T06:34:47.322Z,99.15
2023-05-15T06:35:47.318Z,99.15
2023-05-15T06:36:47.305Z,99.15
2023-05-15T06:37:47.242Z,99.15
2023-05-15T06:38:47.252Z,99.04
2023-05-15T06:39:47.236Z,98.94
2023-05-15T06:40:47.261Z,98.94
2023-05-15T06:41:47.236Z,99.04
2023-05-15T06:42:47.218Z,99.04
2023-05-15T06:43:47.199Z,98.94
2023-05-15T06:44:47.189Z,98.90
2023-05-15T06:45:47.158Z,98.90
2023-05-15T06:46:47.236Z,98.90
2023-05-15T06:47:47.202Z,98.90
2023-05-15T06:48:47.112Z,98.69
2023-05-15T06:49:47.100Z,98.38
2023-05-15T06:50:47.089Z,97.09
2023-05-15T06:51:47.068Z,95.87
2023-05-15T06:52:47.094Z,95.97
2023-05-15T06:53:47.049Z,96.17
2023-05-15T06:54:47.034Z,96.64
2023-05-15T06:55:47.021Z,97.05
2023-05-15T06:56:47.049Z,96.28
2023-05-15T06:57:46.994Z,94.95
2023-05-15T06:58:47.001Z,95.05
2023-05-15T06:59:46.982Z,95.76
2023-05-15T07:00:46.953Z,96.23
2023-05-15T07:01:47.003Z,96.54
2023-05-15T07:02:46.946Z,96.54
2023-05-15T07:03:46.931Z,96.54
2023-05-15T07:04:46.948Z,96.64
2023-05-15T07:05:46.882Z,96.74
2023-05-15T07:06:46.870Z,96.74
2023-05-15T07:07:46.862Z,96.95
2023-05-15T07:08:46.875Z,96.95
2023-05-15T07:09:46.816Z,97.15
2023-05-15T07:10:46.816Z,97.31
2023-05-15T07:11:46.801Z,97.62
2023-05-15T07:12:46.862Z,97.41
2023-05-15T07:13:46.789Z,97.25
2023-05-15T07:14:46.798Z,97.62
2023-05-15T07:15:46.745Z,97.62
2023-05-15T07:16:46.745Z,97.72
2023-05-15T07:17:46.896Z,97.87
2023-05-15T07:18:46.800Z,97.87
2023-05-15T07:19:46.742Z,97.72
2023-05-15T07:20:46.671Z,97.36
2023-05-15T07:21:46.682Z,95.82
2023-05-15T07:22:55.628Z,95.72
2023-05-15T07:23:46.646Z,95.82
2023-05-15T07:24:46.645Z,96.13
2023-05-15T07:25:46.660Z,96.54
2023-05-15T07:26:57.456Z,97.05
2023-05-15T07:27:46.609Z,97.25
2023-05-15T07:28:46.601Z,97.21
2023-05-15T07:29:46.625Z,97.05
2023-05-15T07:30:46.542Z,96.49
2023-05-15T07:31:46.591Z,96.33
2023-05-15T07:32:46.593Z,96.23
2023-05-15T07:33:46.524Z,96.33
2023-05-15T07:34:46.495Z,96.49
2023-05-15T07:35:46.475Z,96.80
2023-05-15T07:36:46.466Z,96.29
2023-05-15T07:37:46.482Z,95.92
2023-05-15T07:38:46.457Z,95.72
2023-05-15T07:39:46.446Z,96.19
2023-05-15T07:40:46.417Z,96.49
2023-05-15T07:41:46.409Z,96.49
2023-05-15T07:42:46.426Z,95.98
2023-05-15T07:43:46.380Z,95.57
2023-05-15T07:44:48.773Z,95.26
2023-05-15T07:45:46.419Z,95.06
2023-05-15T07:46:46.361Z,95.06
2023-05-15T07:47:46.460Z,95.17
2023-05-15T07:48:46.315Z,95.26
2023-05-15T07:49:46.322Z,95.47
2023-05-15T07:50:46.274Z,95.57
2023-05-15T07:51:46.261Z,95.17
2023-05-15T07:52:46.316Z,94.96
2023-05-15T07:53:46.236Z,95.06
2023-05-15T07:54:46.230Z,95.57
2023-05-15T07:55:46.226Z,95.67
2023-05-15T07:56:46.234Z,95.78
2023-05-15T07:58:46.215Z,95.88
2023-05-15T07:59:46.282Z,95.78
2023-05-15T08:00:46.139Z,95.98
2023-05-15T08:01:46.152Z,96.39
2023-05-15T08:02:46.323Z,96.49
2023-05-15T08:03:46.195Z,96.08
2023-05-15T08:04:46.103Z,95.57
2023-05-15T08:05:46.093Z,94.45
2023-05-15T08:06:46.046Z,94.65
2023-05-15T08:07:46.062Z,94.96
2023-05-15T08:08:46.075Z,95.17
2023-05-15T08:09:46.075Z,95.12
2023-05-15T08:10:46.004Z,95.02
2023-05-15T08:11:46.034Z,95.02
2023-05-15T08:12:46.015Z,95.02
2023-05-15T08:13:45.998Z,95.12
2023-05-15T08:14:46.011Z,95.12
2023-05-15T08:15:46.033Z,93.99
2023-05-15T08:16:45.925Z,92.60
2023-05-15T08:17:46.009Z,92.81
2023-05-15T08:18:45.953Z,93.43
2023-05-15T08:19:45.902Z,93.73
2023-05-15T08:20:45.917Z,93.93
2023-05-15T08:21:45.920Z,94.14
2023-05-15T08:22:45.845Z,94.14
2023-05-15T08:23:45.859Z,94.24
2023-05-15T08:24:45.810Z,94.45
2023-05-15T08:25:45.936Z,94.45
2023-05-15T08:26:45.809Z,94.45
2023-05-15T08:27:45.800Z,94.65
2023-05-15T08:28:45.790Z,94.65
2023-05-15T08:29:45.754Z,95.17
2023-05-15T08:30:45.763Z,95.26
2023-05-15T08:31:45.755Z,95.32
2023-05-15T08:32:45.803Z,95.02
2023-05-15T08:33:45.746Z,94.65
2023-05-15T08:34:45.700Z,94.14
2023-05-15T08:35:45.715Z,94.04
2023-05-15T08:36:45.695Z,94.24
2023-05-15T08:37:45.657Z,94.30
2023-05-15T08:38:45.634Z,94.40
2023-05-15T08:39:45.648Z,94.40
2023-05-15T08:40:45.618Z,94.10
2023-05-15T08:41:45.638Z,93.89
2023-05-15T08:42:45.583Z,93.28
2023-05-15T08:43:45.679Z,93.28
2023-05-15T08:44:45.606Z,93.59
2023-05-15T08:45:45.545Z,93.99
2023-05-15T08:46:45.607Z,94.20
2023-05-15T08:47:45.546Z,94.20
2023-05-15T08:48:45.517Z,93.93
2023-05-15T08:49:45.513Z,93.52
2023-05-15T08:50:45.492Z,93.32
2023-05-15T08:51:45.461Z,93.93
2023-05-15T08:52:45.535Z,94.34
2023-05-15T08:53:45.431Z,94.14
2023-05-15T08:54:47.413Z,94.14
2023-05-15T08:55:45.428Z,93.93
2023-05-15T08:56:45.427Z,93.43
2023-05-15T08:57:45.435Z,93.22
2023-05-15T08:58:45.377Z,93.84
2023-05-15T08:59:45.358Z,94.04
2023-05-15T09:00:45.352Z,94.04
2023-05-15T09:01:45.375Z,94.04
2023-05-15T09:02:45.405Z,94.14
2023-05-15T09:03:45.354Z,94.45
2023-05-15T09:04:45.314Z,94.85
2023-05-15T09:05:45.281Z,95.47
2023-05-15T09:06:45.315Z,95.37
2023-05-15T09:07:45.250Z,94.85
2023-05-15T09:08:45.233Z,94.75
2023-05-15T09:09:45.278Z,94.75
2023-05-15T09:10:45.251Z,94.34
2023-05-15T09:11:45.201Z,94.34
2023-05-15T09:12:45.199Z,94.14
2023-05-15T09:13:45.202Z,93.73
2023-05-15T09:14:45.166Z,93.93
2023-05-15T09:15:45.138Z,93.52
2023-05-15T09:16:45.173Z,93.32
2023-05-15T09:17:45.128Z,93.52
2023-05-15T09:18:45.156Z,93.73
2023-05-15T09:19:45.136Z,93.48
2023-05-15T09:20:45.063Z,92.71
2023-05-15T09:21:45.072Z,92.81
2023-05-15T09:22:45.055Z,93.12
2023-05-15T09:23:45.116Z,93.01
2023-05-15T09:24:45.033Z,93.28
2023-05-15T09:25:45.023Z,93.38
2023-05-15T09:26:45.009Z,92.97
2023-05-15T09:27:44.988Z,92.97
2023-05-15T09:28:45.166Z,93.07
2023-05-15T09:29:44.954Z,92.46
2023-05-15T09:30:45.049Z,92.05
2023-05-15T09:31:45.000Z,92.25
2023-05-15T09:32:44.990Z,92.36
2023-05-15T09:33:44.903Z,91.33
2023-05-15T09:34:44.889Z,90.82
2023-05-15T09:35:44.915Z,90.52
2023-05-15T09:36:44.866Z,90.72
2023-05-15T09:37:44.879Z,90.00
2023-05-15T09:38:44.858Z,89.76
2023-05-15T09:39:44.901Z,89.86
2023-05-15T09:40:44.825Z,89.56
2023-05-15T09:41:44.840Z,90.99
2023-05-15T09:42:44.890Z,90.43
2023-05-15T09:43:44.760Z,89.82
2023-05-15T09:44:44.763Z,89.20
2023-05-15T09:45:44.820Z,87.88
2023-05-15T09:46:44.801Z,87.98
2023-05-15T09:47:44.786Z,87.88
2023-05-15T09:48:44.755Z,88.18
2023-05-15T09:49:44.729Z,86.65
2023-05-15T09:50:44.699Z,87.57
2023-05-15T09:51:44.722Z,87.16
2023-05-15T09:52:44.678Z,86.24
2023-05-15T09:53:44.712Z,87.16
2023-05-15T09:54:44.660Z,84.91
2023-05-15T09:55:44.605Z,85.53
2023-05-15T09:56:44.593Z,86.61
2023-05-15T09:57:44.597Z,88.85
2023-05-15T09:58:44.594Z,88.35
2023-05-15T09:59:44.551Z,88.82
2023-05-15T10:00:48.657Z,89.53
2023-05-15T10:01:44.552Z,85.96
2023-05-15T10:02:44.547Z,85.45
2023-05-15T10:03:44.501Z,84.94
2023-05-15T10:04:44.540Z,84.12
2023-05-15T10:05:44.870Z,84.94
2023-05-15T10:06:44.472Z,85.35
2023-05-15T10:07:44.489Z,83.30
2023-05-15T10:08:44.430Z,83.30
2023-05-15T10:09:44.417Z,84.01
2023-05-15T10:10:44.406Z,84.83
2023-05-15T10:11:44.412Z,85.55
2023-05-15T10:12:44.969Z,87.76
2023-05-15T10:13:44.382Z,88.78
2023-05-15T10:14:44.388Z,89.39
2023-05-15T10:15:44.387Z,90.81
2023-05-15T10:16:44.384Z,91.08
2023-05-15T10:18:15.526Z,89.75
2023-05-15T10:18:44.346Z,89.04
2023-05-15T10:19:56.557Z,88.32
2023-05-15T10:20:44.322Z,89.75
2023-05-15T10:21:44.287Z,90.16
2023-05-15T10:22:44.247Z,88.84
2023-05-15T10:23:44.226Z,86.49
2023-05-15T10:24:44.257Z,87.51
2023-05-15T10:25:44.216Z,88.32
2023-05-15T10:26:44.206Z,88.43
2023-05-15T10:27:44.201Z,89.92
2023-05-15T10:28:44.865Z,89.00
2023-05-15T10:29:44.192Z,89.00
2023-05-15T10:30:44.150Z,88.08
2023-05-15T10:31:44.221Z,87.16
2023-05-15T10:32:44.150Z,86.76
2023-05-15T10:33:44.110Z,88.69
2023-05-15T10:34:44.123Z,88.24
2023-05-15T10:35:44.080Z,88.55
2023-05-15T10:36:44.114Z,90.18
2023-05-15T10:37:44.062Z,89.57
2023-05-15T10:38:44.059Z,89.06
2023-05-15T10:39:44.016Z,89.16
2023-05-15T10:40:44.032Z,89.12
2023-05-15T10:41:44.095Z,90.03
2023-05-15T10:42:44.002Z,90.64
2023-05-15T10:43:43.969Z,88.87
2023-05-15T10:44:43.965Z,87.85
2023-05-15T10:45:43.978Z,88.67
2023-05-15T10:46:43.960Z,87.30
2023-05-15T10:47:43.957Z,85.06
2023-05-15T10:48:43.936Z,85.47
2023-05-15T10:49:43.880Z,84.70
2023-05-15T10:50:44.029Z,87.10
2023-05-15T10:51:43.855Z,86.59
2023-05-15T10:52:43.881Z,87.30
2023-05-15T10:53:43.836Z,86.49
2023-05-15T10:54:43.891Z,85.58
2023-05-15T10:55:43.844Z,85.88
2023-05-15T10:56:43.836Z,85.47
2023-05-15T10:57:43.804Z,83.84
2023-05-15T10:58:43.758Z,85.94
2023-05-15T10:59:43.772Z,85.53
2023-05-15T11:00:43.834Z,85.23
2023-05-15T11:01:43.845Z,86.15
2023-05-15T11:02:43.721Z,82.68
2023-05-15T11:03:49.158Z,85.33
2023-05-15T11:04:43.792Z,86.35
2023-05-15T11:05:43.697Z,84.92
2023-05-15T11:06:43.671Z,81.57
2023-05-15T11:07:43.642Z,77.09
2023-05-15T11:08:43.621Z,78.31
2023-05-15T11:09:43.615Z,78.31
2023-05-15T11:10:43.635Z,78.58
2023-05-15T11:11:43.614Z,78.89
2023-05-15T11:12:43.615Z,76.65
2023-05-15T11:13:43.546Z,77.06
2023-05-15T11:14:43.546Z,77.67
2023-05-15T11:15:43.562Z,80.00
2023-05-15T11:16:43.572Z,77.53
2023-05-15T11:17:43.534Z,76.82
2023-05-15T11:18:43.550Z,77.12
2023-05-15T11:19:43.474Z,76.82
2023-05-15T11:20:43.487Z,76.31
2023-05-15T11:21:43.432Z,75.09
2023-05-15T11:22:43.460Z,74.28
2023-05-15T11:23:43.447Z,75.26
2023-05-15T11:24:43.402Z,72.62
2023-05-15T11:25:43.412Z,71.70
2023-05-15T11:26:43.393Z,73.26
2023-05-15T11:27:43.391Z,75.09
2023-05-15T11:28:43.480Z,74.95
2023-05-15T11:29:43.342Z,72.82
2023-05-15T11:30:43.360Z,75.26
2023-05-15T11:31:43.335Z,75.16
2023-05-15T11:32:43.433Z,71.67
2023-05-15T11:33:43.286Z,71.88
2023-05-15T11:34:43.295Z,72.48
2023-05-15T11:35:43.349Z,72.78
2023-05-15T11:36:43.301Z,74.31
2023-05-15T11:37:43.251Z,75.09
2023-05-15T11:38:43.231Z,76.10
2023-05-15T11:39:43.217Z,74.88
2023-05-15T11:40:43.244Z,73.43
2023-05-15T11:41:43.376Z,72.82
2023-05-15T11:42:43.195Z,72.41
2023-05-15T11:43:43.185Z,72.61
2023-05-15T11:44:43.140Z,73.19
2023-05-15T11:45:43.147Z,73.09
2023-05-15T11:46:43.177Z,77.41
2023-05-15T11:47:43.167Z,77.17
2023-05-15T11:48:43.143Z,74.51
2023-05-15T11:49:43.087Z,75.11
2023-05-15T11:50:43.073Z,76.59
2023-05-15T11:51:43.086Z,77.47
2023-05-15T11:52:43.037Z,72.72
2023-05-15T11:53:43.035Z,71.47
2023-05-15T11:54:43.932Z,71.87
2023-05-15T11:55:43.032Z,73.19
2023-05-15T11:56:43.028Z,71.13
2023-05-15T11:57:42.961Z,73.05
2023-05-15T11:58:42.976Z,75.17
2023-05-15T11:59:43.051Z,72.64
2023-05-15T12:00:42.945Z,71.67
2023-05-15T12:01:42.954Z,72.99
2023-05-15T12:02:43.030Z,72.08
2023-05-15T12:03:42.990Z,73.59
2023-05-15T12:04:42.912Z,71.64
2023-05-15T12:05:54.228Z,71.94
2023-05-15T12:06:42.886Z,72.64
2023-05-15T12:07:42.845Z,70.12
2023-05-15T12:08:42.812Z,71.64
2023-05-15T12:09:42.838Z,73.75
2023-05-15T12:10:42.818Z,73.35
2023-05-15T12:11:42.786Z,72.78
2023-05-15T12:12:42.804Z,72.28
2023-05-15T12:13:42.770Z,74.70
2023-05-15T12:14:42.749Z,72.99
2023-05-15T12:15:42.781Z,71.30
2023-05-15T12:16:42.769Z,72.81
2023-05-15T12:17:42.743Z,72.92
2023-05-15T12:18:42.863Z,74.33
2023-05-15T12:19:42.689Z,73.69
2023-05-15T12:20:42.664Z,72.99
2023-05-15T12:21:42.678Z,73.25
2023-05-15T12:22:42.653Z,74.66
2023-05-15T12:23:42.626Z,74.22
2023-05-15T12:24:42.642Z,74.63
2023-05-15T12:25:42.620Z,72.78
2023-05-15T12:26:42.585Z,73.85
2023-05-15T12:27:42.583Z,70.22
2023-05-15T12:28:42.590Z,69.89
2023-05-15T12:29:42.553Z,68.68
2023-05-15T12:30:42.541Z,68.81
2023-05-15T12:31:42.590Z,65.88
2023-05-15T12:32:42.517Z,66.19
2023-05-15T12:33:42.488Z,67.10
2023-05-15T12:34:42.480Z,69.72
2023-05-15T12:35:42.472Z,67.19
2023-05-15T12:36:42.482Z,69.38
2023-05-15T12:37:42.473Z,72.38
2023-05-15T12:38:42.435Z,69.42
2023-05-15T12:39:42.412Z,70.42
2023-05-15T12:40:42.398Z,69.18
2023-05-15T12:41:42.404Z,69.56
2023-05-15T12:42:42.463Z,67.41
2023-05-15T12:43:42.894Z,63.35
2023-05-15T12:44:42.366Z,65.87
2023-05-15T12:45:42.358Z,58.05
2023-05-15T12:46:42.526Z,60.69
2023-05-15T12:47:42.342Z,61.43
2023-05-15T12:48:42.319Z,62.13
2023-05-15T12:49:42.267Z,58.74
2023-05-15T12:50:42.281Z,59.27
2023-05-15T12:51:42.274Z,60.51
2023-05-15T12:52:42.241Z,61.21
2023-05-15T12:53:42.252Z,63.84